sensor_id;sensor_type;location;lat;lon;timestamp;temperature;humidity
1367;DHT22;16877;48.810;9.282;2023-04-03T00:01:21;16.90;43.10
1367;DHT22;16877;48.810;9.282;2023-04-03T00:03:48;16.90;43.10
1367;DHT22;16877;48.810;9.282;2023-04-03T00:06:17;16.90;43.10
1367;DHT22;16877;48.810;9.282;2023-04-03T00:08:45;16.90;43.10
1367;DHT22;16877;48.810;9.282;2023-04-03T00:11:12;16.90;43.10
1367;DHT22;16877;48.810;9.282;2023-04-03T00:13:40;16.90;43.10
1367;DHT22;16877;48.810;9.282;2023-04-03T00:16:09;16.90;43.10
1367;DHT22;16877;48.810;9.282;2023-04-03T00:18:39;16.90;43.10
1367;DHT22;16877;48.810;9.282;2023-04-03T00:21:07;16.90;43.10
1367;DHT22;16877;48.810;9.282;2023-04-03T00:23:35;16.90;43.10
1367;DHT22;16877;48.810;9.282;2023-04-03T00:26:02;16.90;43.00
1367;DHT22;16877;48.810;9.282;2023-04-03T00:28:30;16.90;43.00
1367;DHT22;16877;48.810;9.282;2023-04-03T00:30:57;16.80;43.40
1367;DHT22;16877;48.810;9.282;2023-04-03T00:33:24;16.80;42.80
1367;DHT22;16877;48.810;9.282;2023-04-03T00:35:54;16.80;42.90
1367;DHT22;16877;48.810;9.282;2023-04-03T00:38:21;16.80;42.80
1367;DHT22;16877;48.810;9.282;2023-04-03T00:40:49;16.80;42.80
1367;DHT22;16877;48.810;9.282;2023-04-03T00:43:19;16.70;42.70
1367;DHT22;16877;48.810;9.282;2023-04-03T00:45:51;16.70;42.80
1367;DHT22;16877;48.810;9.282;2023-04-03T00:48:22;16.70;42.80
1367;DHT22;16877;48.810;9.282;2023-04-03T00:50:53;16.70;42.70
1367;DHT22;16877;48.810;9.282;2023-04-03T00:53:23;16.70;42.80
1367;DHT22;16877;48.810;9.282;2023-04-03T00:55:53;16.70;42.80
1367;DHT22;16877;48.810;9.282;2023-04-03T00:58:25;16.70;42.70
1367;DHT22;16877;48.810;9.282;2023-04-03T01:00:57;16.70;42.80
1367;DHT22;16877;48.810;9.282;2023-04-03T01:03:26;16.70;42.80
1367;DHT22;16877;48.810;9.282;2023-04-03T01:05:54;16.70;42.70
1367;DHT22;16877;48.810;9.282;2023-04-03T01:08:22;16.70;42.70
1367;DHT22;16877;48.810;9.282;2023-04-03T01:10:49;16.70;42.80
1367;DHT22;16877;48.810;9.282;2023-04-03T01:13:19;16.70;42.80
1367;DHT22;16877;48.810;9.282;2023-04-03T01:15:47;16.70;42.80
1367;DHT22;16877;48.810;9.282;2023-04-03T01:18:15;16.70;42.90
1367;DHT22;16877;48.810;9.282;2023-04-03T01:24:11;16.70;42.90
1367;DHT22;16877;48.810;9.282;2023-04-03T01:26:41;16.70;42.90
1367;DHT22;16877;48.810;9.282;2023-04-03T01:29:08;16.70;42.90
1367;DHT22;16877;48.810;9.282;2023-04-03T01:32:05;16.70;43.00
1367;DHT22;16877;48.810;9.282;2023-04-03T01:34:32;16.70;42.90
1367;DHT22;16877;48.810;9.282;2023-04-03T01:36:59;16.70;43.00
1367;DHT22;16877;48.810;9.282;2023-04-03T01:39:27;16.60;42.90
1367;DHT22;16877;48.810;9.282;2023-04-03T01:41:54;16.60;42.90
1367;DHT22;16877;48.810;9.282;2023-04-03T01:44:22;16.60;42.90
1367;DHT22;16877;48.810;9.282;2023-04-03T01:46:57;16.60;42.90
1367;DHT22;16877;48.810;9.282;2023-04-03T01:49:50;16.60;42.90
1367;DHT22;16877;48.810;9.282;2023-04-03T01:55:03;16.60;42.80
1367;DHT22;16877;48.810;9.282;2023-04-03T01:57:33;16.60;42.80
1367;DHT22;16877;48.810;9.282;2023-04-03T02:00:16;16.60;42.80
1367;DHT22;16877;48.810;9.282;2023-04-03T02:02:44;16.60;42.80
1367;DHT22;16877;48.810;9.282;2023-04-03T02:05:14;16.60;42.80
1367;DHT22;16877;48.810;9.282;2023-04-03T02:07:43;16.60;42.70
1367;DHT22;16877;48.810;9.282;2023-04-03T02:10:13;16.60;42.70
1367;DHT22;16877;48.810;9.282;2023-04-03T02:12:45;16.60;42.70
1367;DHT22;16877;48.810;9.282;2023-04-03T02:15:13;16.60;42.70
1367;DHT22;16877;48.810;9.282;2023-04-03T02:17:40;16.60;42.60
1367;DHT22;16877;48.810;9.282;2023-04-03T02:20:08;16.60;42.50
1367;DHT22;16877;48.810;9.282;2023-04-03T02:22:37;16.60;42.40
1367;DHT22;16877;48.810;9.282;2023-04-03T02:25:05;16.60;42.30
1367;DHT22;16877;48.810;9.282;2023-04-03T02:27:35;16.60;42.30
1367;DHT22;16877;48.810;9.282;2023-04-03T02:30:02;16.60;42.30
1367;DHT22;16877;48.810;9.282;2023-04-03T02:32:30;16.60;42.30
1367;DHT22;16877;48.810;9.282;2023-04-03T02:34:58;16.60;42.20
1367;DHT22;16877;48.810;9.282;2023-04-03T02:37:29;16.60;42.20
1367;DHT22;16877;48.810;9.282;2023-04-03T02:39:59;16.60;42.20
1367;DHT22;16877;48.810;9.282;2023-04-03T02:42:26;16.60;42.20
1367;DHT22;16877;48.810;9.282;2023-04-03T02:44:54;16.60;42.10
1367;DHT22;16877;48.810;9.282;2023-04-03T02:47:21;16.60;42.20
1367;DHT22;16877;48.810;9.282;2023-04-03T02:49:48;16.60;42.10
1367;DHT22;16877;48.810;9.282;2023-04-03T02:52:16;16.60;42.10
1367;DHT22;16877;48.810;9.282;2023-04-03T02:54:44;16.50;42.00
1367;DHT22;16877;48.810;9.282;2023-04-03T02:57:13;16.60;42.10
1367;DHT22;16877;48.810;9.282;2023-04-03T02:59:40;16.60;42.10
1367;DHT22;16877;48.810;9.282;2023-04-03T03:02:07;16.60;42.10
1367;DHT22;16877;48.810;9.282;2023-04-03T03:04:50;16.50;42.00
1367;DHT22;16877;48.810;9.282;2023-04-03T03:07:19;16.60;42.10
1367;DHT22;16877;48.810;9.282;2023-04-03T03:09:49;16.50;42.00
1367;DHT22;16877;48.810;9.282;2023-04-03T03:12:19;16.60;42.10
1367;DHT22;16877;48.810;9.282;2023-04-03T03:14:47;16.60;42.20
1367;DHT22;16877;48.810;9.282;2023-04-03T03:17:14;16.60;42.20
1367;DHT22;16877;48.810;9.282;2023-04-03T03:19:42;16.50;42.20
1367;DHT22;16877;48.810;9.282;2023-04-03T03:22:11;16.60;42.10
1367;DHT22;16877;48.810;9.282;2023-04-03T03:24:39;16.50;42.10
1367;DHT22;16877;48.810;9.282;2023-04-03T03:27:06;16.50;42.10
1367;DHT22;16877;48.810;9.282;2023-04-03T03:29:35;16.50;42.10
1367;DHT22;16877;48.810;9.282;2023-04-03T03:32:03;16.50;42.00
1367;DHT22;16877;48.810;9.282;2023-04-03T03:34:31;16.50;42.00
1367;DHT22;16877;48.810;9.282;2023-04-03T03:36:58;16.40;41.90
1367;DHT22;16877;48.810;9.282;2023-04-03T03:39:26;16.50;42.00
1367;DHT22;16877;48.810;9.282;2023-04-03T03:41:53;16.50;41.80
1367;DHT22;16877;48.810;9.282;2023-04-03T03:44:21;16.50;42.40
1367;DHT22;16877;48.810;9.282;2023-04-03T03:47:00;16.50;41.90
1367;DHT22;16877;48.810;9.282;2023-04-03T03:49:29;16.50;41.90
1367;DHT22;16877;48.810;9.282;2023-04-03T03:51:57;16.40;41.70
1367;DHT22;16877;48.810;9.282;2023-04-03T03:54:24;16.40;41.70
1367;DHT22;16877;48.810;9.282;2023-04-03T03:56:51;16.40;41.80
1367;DHT22;16877;48.810;9.282;2023-04-03T03:59:18;16.40;41.80
1367;DHT22;16877;48.810;9.282;2023-04-03T04:01:46;16.50;41.80
1367;DHT22;16877;48.810;9.282;2023-04-03T04:04:15;16.40;41.80
1367;DHT22;16877;48.810;9.282;2023-04-03T04:06:42;16.40;41.90
1367;DHT22;16877;48.810;9.282;2023-04-03T04:09:12;16.40;41.90
1367;DHT22;16877;48.810;9.282;2023-04-03T04:11:39;16.40;41.90
1367;DHT22;16877;48.810;9.282;2023-04-03T04:14:07;16.40;41.90
1367;DHT22;16877;48.810;9.282;2023-04-03T04:16:36;16.40;42.50
1367;DHT22;16877;48.810;9.282;2023-04-03T04:19:03;16.40;41.90
1367;DHT22;16877;48.810;9.282;2023-04-03T04:21:32;16.40;41.80
1367;DHT22;16877;48.810;9.282;2023-04-03T04:24:02;16.40;41.80
1367;DHT22;16877;48.810;9.282;2023-04-03T04:26:30;16.40;41.80
1367;DHT22;16877;48.810;9.282;2023-04-03T04:28:58;16.40;41.90
1367;DHT22;16877;48.810;9.282;2023-04-03T04:31:25;16.40;41.80
1367;DHT22;16877;48.810;9.282;2023-04-03T04:33:53;16.30;41.70
1367;DHT22;16877;48.810;9.282;2023-04-03T04:36:20;16.40;41.80
1367;DHT22;16877;48.810;9.282;2023-04-03T04:38:49;16.30;41.70
1367;DHT22;16877;48.810;9.282;2023-04-03T04:41:18;16.30;41.70
1367;DHT22;16877;48.810;9.282;2023-04-03T04:43:46;16.40;41.70
1367;DHT22;16877;48.810;9.282;2023-04-03T04:46:14;16.40;41.70
1367;DHT22;16877;48.810;9.282;2023-04-03T04:48:42;16.40;41.70
1367;DHT22;16877;48.810;9.282;2023-04-03T04:51:10;16.30;41.60
1367;DHT22;16877;48.810;9.282;2023-04-03T04:53:38;16.30;41.60
1367;DHT22;16877;48.810;9.282;2023-04-03T04:56:08;16.30;41.50
1367;DHT22;16877;48.810;9.282;2023-04-03T04:58:39;16.40;41.60
1367;DHT22;16877;48.810;9.282;2023-04-03T05:01:08;16.40;41.50
1367;DHT22;16877;48.810;9.282;2023-04-03T05:03:36;16.40;41.50
1367;DHT22;16877;48.810;9.282;2023-04-03T05:06:04;16.40;41.40
1367;DHT22;16877;48.810;9.282;2023-04-03T05:08:34;16.40;41.40
1367;DHT22;16877;48.810;9.282;2023-04-03T05:11:14;16.40;41.30
1367;DHT22;16877;48.810;9.282;2023-04-03T05:13:51;16.40;41.30
1367;DHT22;16877;48.810;9.282;2023-04-03T05:16:19;16.40;41.30
1367;DHT22;16877;48.810;9.282;2023-04-03T05:19:01;16.40;41.30
1367;DHT22;16877;48.810;9.282;2023-04-03T05:21:28;16.40;41.90
1367;DHT22;16877;48.810;9.282;2023-04-03T05:23:57;16.40;41.40
1367;DHT22;16877;48.810;9.282;2023-04-03T05:26:27;16.40;41.40
1367;DHT22;16877;48.810;9.282;2023-04-03T05:28:54;16.50;41.50
1367;DHT22;16877;48.810;9.282;2023-04-03T05:31:22;16.40;41.40
1367;DHT22;16877;48.810;9.282;2023-04-03T05:33:49;16.40;41.40
1367;DHT22;16877;48.810;9.282;2023-04-03T05:36:17;16.40;41.40
1367;DHT22;16877;48.810;9.282;2023-04-03T05:38:44;16.40;41.50
1367;DHT22;16877;48.810;9.282;2023-04-03T05:41:11;16.50;41.50
1367;DHT22;16877;48.810;9.282;2023-04-03T05:43:40;16.50;41.60
1367;DHT22;16877;48.810;9.282;2023-04-03T05:46:10;16.40;41.50
1367;DHT22;16877;48.810;9.282;2023-04-03T05:48:51;16.50;41.50
1367;DHT22;16877;48.810;9.282;2023-04-03T05:51:28;16.50;41.50
1367;DHT22;16877;48.810;9.282;2023-04-03T05:54:08;16.50;41.40
1367;DHT22;16877;48.810;9.282;2023-04-03T05:56:51;16.50;41.50
1367;DHT22;16877;48.810;9.282;2023-04-03T05:59:28;16.50;41.40
1367;DHT22;16877;48.810;9.282;2023-04-03T06:02:06;16.50;41.40
1367;DHT22;16877;48.810;9.282;2023-04-03T06:04:35;16.50;41.30
1367;DHT22;16877;48.810;9.282;2023-04-03T06:07:09;16.50;41.20
1367;DHT22;16877;48.810;9.282;2023-04-03T06:09:46;16.60;41.30
1367;DHT22;16877;48.810;9.282;2023-04-03T06:12:29;16.60;41.30
1367;DHT22;16877;48.810;9.282;2023-04-03T06:15:17;16.60;41.20
1367;DHT22;16877;48.810;9.282;2023-04-03T06:18:00;16.60;41.20
1367;DHT22;16877;48.810;9.282;2023-04-03T06:20:41;16.70;41.20
1367;DHT22;16877;48.810;9.282;2023-04-03T06:23:14;16.60;41.10
1367;DHT22;16877;48.810;9.282;2023-04-03T06:25:42;16.70;41.20
1367;DHT22;16877;48.810;9.282;2023-04-03T06:28:11;16.70;41.10
1367;DHT22;16877;48.810;9.282;2023-04-03T06:30:42;16.70;41.20
1367;DHT22;16877;48.810;9.282;2023-04-03T06:33:15;16.70;41.10
1367;DHT22;16877;48.810;9.282;2023-04-03T06:35:52;16.80;41.20
1367;DHT22;16877;48.810;9.282;2023-04-03T06:38:23;16.80;41.20
1367;DHT22;16877;48.810;9.282;2023-04-03T06:41:05;16.80;41.20
1367;DHT22;16877;48.810;9.282;2023-04-03T06:43:42;16.80;41.10
1367;DHT22;16877;48.810;9.282;2023-04-03T06:46:18;16.80;41.00
1367;DHT22;16877;48.810;9.282;2023-04-03T06:48:46;16.80;41.10
1367;DHT22;16877;48.810;9.282;2023-04-03T06:51:31;16.90;41.20
1367;DHT22;16877;48.810;9.282;2023-04-03T06:54:00;16.90;41.20
1367;DHT22;16877;48.810;9.282;2023-04-03T06:56:43;16.90;41.20
1367;DHT22;16877;48.810;9.282;2023-04-03T06:59:12;17.20;50.10
1367;DHT22;16877;48.810;9.282;2023-04-03T07:01:45;17.50;54.40
1367;DHT22;16877;48.810;9.282;2023-04-03T07:04:24;18.40;59.80
1367;DHT22;16877;48.810;9.282;2023-04-03T07:06:52;18.90;56.80
1367;DHT22;16877;48.810;9.282;2023-04-03T07:09:21;19.00;54.60
1367;DHT22;16877;48.810;9.282;2023-04-03T07:11:49;18.90;49.90
1367;DHT22;16877;48.810;9.282;2023-04-03T07:14:23;18.80;47.90
1367;DHT22;16877;48.810;9.282;2023-04-03T07:17:02;18.70;46.80
1367;DHT22;16877;48.810;9.282;2023-04-03T07:19:36;18.60;45.80
1367;DHT22;16877;48.810;9.282;2023-04-03T07:22:04;18.50;45.00
1367;DHT22;16877;48.810;9.282;2023-04-03T07:24:31;18.50;44.40
1367;DHT22;16877;48.810;9.282;2023-04-03T07:26:59;18.40;44.00
1367;DHT22;16877;48.810;9.282;2023-04-03T07:29:27;18.40;43.60
1367;DHT22;16877;48.810;9.282;2023-04-03T07:31:55;18.30;42.80
1367;DHT22;16877;48.810;9.282;2023-04-03T07:34:38;18.30;42.70
1367;DHT22;16877;48.810;9.282;2023-04-03T07:37:06;18.30;42.60
1367;DHT22;16877;48.810;9.282;2023-04-03T07:39:37;18.30;42.40
1367;DHT22;16877;48.810;9.282;2023-04-03T07:42:09;18.30;42.70
1367;DHT22;16877;48.810;9.282;2023-04-03T07:44:47;18.30;41.90
1367;DHT22;16877;48.810;9.282;2023-04-03T07:47:14;18.30;41.60
1367;DHT22;16877;48.810;9.282;2023-04-03T07:49:51;18.30;41.60
1367;DHT22;16877;48.810;9.282;2023-04-03T07:52:23;18.30;41.50
1367;DHT22;16877;48.810;9.282;2023-04-03T07:54:56;18.30;41.50
1367;DHT22;16877;48.810;9.282;2023-04-03T07:57:23;18.30;41.40
1367;DHT22;16877;48.810;9.282;2023-04-03T07:59:58;18.30;41.40
1367;DHT22;16877;48.810;9.282;2023-04-03T08:02:35;18.30;41.30
1367;DHT22;16877;48.810;9.282;2023-04-03T08:05:09;18.30;41.30
1367;DHT22;16877;48.810;9.282;2023-04-03T08:07:44;18.30;41.40
1367;DHT22;16877;48.810;9.282;2023-04-03T08:10:14;18.40;41.20
1367;DHT22;16877;48.810;9.282;2023-04-03T08:12:46;18.40;41.00
1367;DHT22;16877;48.810;9.282;2023-04-03T08:15:13;18.40;40.90
1367;DHT22;16877;48.810;9.282;2023-04-03T08:17:42;18.40;40.80
1367;DHT22;16877;48.810;9.282;2023-04-03T08:20:19;18.50;40.90
1367;DHT22;16877;48.810;9.282;2023-04-03T08:22:46;18.50;40.90
1367;DHT22;16877;48.810;9.282;2023-04-03T08:25:14;18.50;40.60
1367;DHT22;16877;48.810;9.282;2023-04-03T08:27:43;18.50;40.30
1367;DHT22;16877;48.810;9.282;2023-04-03T08:30:12;18.50;40.30
1367;DHT22;16877;48.810;9.282;2023-04-03T08:32:51;18.60;40.30
1367;DHT22;16877;48.810;9.282;2023-04-03T08:35:27;18.70;40.50
1367;DHT22;16877;48.810;9.282;2023-04-03T08:37:55;18.80;40.70
1367;DHT22;16877;48.810;9.282;2023-04-03T08:40:24;18.80;40.50
1367;DHT22;16877;48.810;9.282;2023-04-03T08:42:57;18.90;40.40
1367;DHT22;16877;48.810;9.282;2023-04-03T08:45:45;19.00;40.40
1367;DHT22;16877;48.810;9.282;2023-04-03T08:48:20;19.00;40.50
1367;DHT22;16877;48.810;9.282;2023-04-03T08:50:54;18.90;40.20
1367;DHT22;16877;48.810;9.282;2023-04-03T08:53:26;18.90;40.10
1367;DHT22;16877;48.810;9.282;2023-04-03T08:55:57;18.90;40.20
1367;DHT22;16877;48.810;9.282;2023-04-03T08:58:26;19.00;40.30
1367;DHT22;16877;48.810;9.282;2023-04-03T09:00:59;19.00;40.10
1367;DHT22;16877;48.810;9.282;2023-04-03T09:03:31;19.00;40.10
1367;DHT22;16877;48.810;9.282;2023-04-03T09:06:02;19.10;40.20
1367;DHT22;16877;48.810;9.282;2023-04-03T09:08:32;19.10;40.10
1367;DHT22;16877;48.810;9.282;2023-04-03T09:11:11;19.10;40.00
1367;DHT22;16877;48.810;9.282;2023-04-03T09:13:45;19.10;40.00
1367;DHT22;16877;48.810;9.282;2023-04-03T09:16:27;19.10;39.80
1367;DHT22;16877;48.810;9.282;2023-04-03T09:19:02;19.10;39.90
1367;DHT22;16877;48.810;9.282;2023-04-03T09:21:37;19.20;39.80
1367;DHT22;16877;48.810;9.282;2023-04-03T09:24:06;19.20;39.40
1367;DHT22;16877;48.810;9.282;2023-04-03T09:26:38;19.20;39.40
1367;DHT22;16877;48.810;9.282;2023-04-03T09:29:11;19.20;39.40
1367;DHT22;16877;48.810;9.282;2023-04-03T09:31:42;19.10;39.00
1367;DHT22;16877;48.810;9.282;2023-04-03T09:34:21;19.10;39.10
1367;DHT22;16877;48.810;9.282;2023-04-03T09:36:51;19.10;39.10
1367;DHT22;16877;48.810;9.282;2023-04-03T09:39:20;19.10;39.10
1367;DHT22;16877;48.810;9.282;2023-04-03T09:41:57;19.10;39.10
1367;DHT22;16877;48.810;9.282;2023-04-03T09:44:28;19.10;38.90
1367;DHT22;16877;48.810;9.282;2023-04-03T09:46:56;19.10;38.90
1367;DHT22;16877;48.810;9.282;2023-04-03T09:49:24;19.10;38.70
1367;DHT22;16877;48.810;9.282;2023-04-03T09:51:53;19.10;38.70
1367;DHT22;16877;48.810;9.282;2023-04-03T09:54:26;19.10;38.80
1367;DHT22;16877;48.810;9.282;2023-04-03T09:57:09;19.10;38.90
1367;DHT22;16877;48.810;9.282;2023-04-03T09:59:43;19.10;38.70
1367;DHT22;16877;48.810;9.282;2023-04-03T10:02:34;19.10;39.10
1367;DHT22;16877;48.810;9.282;2023-04-03T10:05:03;19.20;39.20
1367;DHT22;16877;48.810;9.282;2023-04-03T10:07:36;19.30;39.00
1367;DHT22;16877;48.810;9.282;2023-04-03T10:10:17;19.30;38.70
1367;DHT22;16877;48.810;9.282;2023-04-03T10:13:05;19.30;38.60
1367;DHT22;16877;48.810;9.282;2023-04-03T10:15:39;19.30;38.60
1367;DHT22;16877;48.810;9.282;2023-04-03T10:18:27;19.30;38.70
1367;DHT22;16877;48.810;9.282;2023-04-03T10:21:19;19.30;38.70
1367;DHT22;16877;48.810;9.282;2023-04-03T10:24:01;19.30;41.70
1367;DHT22;16877;48.810;9.282;2023-04-03T10:26:37;19.30;40.10
1367;DHT22;16877;48.810;9.282;2023-04-03T10:29:16;19.10;39.00
1367;DHT22;16877;48.810;9.282;2023-04-03T10:31:53;18.90;40.10
1367;DHT22;16877;48.810;9.282;2023-04-03T10:34:28;18.90;40.20
1367;DHT22;16877;48.810;9.282;2023-04-03T10:37:05;19.10;42.10
1367;DHT22;16877;48.810;9.282;2023-04-03T10:39:43;19.30;41.40
1367;DHT22;16877;48.810;9.282;2023-04-03T10:42:18;19.40;42.20
1367;DHT22;16877;48.810;9.282;2023-04-03T10:45:03;19.60;42.60
1367;DHT22;16877;48.810;9.282;2023-04-03T10:47:38;19.60;41.60
1367;DHT22;16877;48.810;9.282;2023-04-03T10:53:14;19.80;42.40
1367;DHT22;16877;48.810;9.282;2023-04-03T10:55:54;19.80;41.30
1367;DHT22;16877;48.810;9.282;2023-04-03T10:58:30;19.90;40.60
1367;DHT22;16877;48.810;9.282;2023-04-03T11:01:08;19.80;40.10
1367;DHT22;16877;48.810;9.282;2023-04-03T11:03:40;19.90;39.70
1367;DHT22;16877;48.810;9.282;2023-04-03T11:06:11;19.80;39.40
1367;DHT22;16877;48.810;9.282;2023-04-03T11:08:45;19.70;39.00
1367;DHT22;16877;48.810;9.282;2023-04-03T11:11:26;19.70;38.80
1367;DHT22;16877;48.810;9.282;2023-04-03T11:14:01;19.60;38.10
1367;DHT22;16877;48.810;9.282;2023-04-03T11:16:32;19.50;37.90
1367;DHT22;16877;48.810;9.282;2023-04-03T11:19:04;19.50;37.80
1367;DHT22;16877;48.810;9.282;2023-04-03T11:21:39;19.50;37.30
1367;DHT22;16877;48.810;9.282;2023-04-03T11:24:15;19.50;37.10
1367;DHT22;16877;48.810;9.282;2023-04-03T11:26:54;19.40;37.10
1367;DHT22;16877;48.810;9.282;2023-04-03T11:29:24;19.80;43.70
1367;DHT22;16877;48.810;9.282;2023-04-03T11:32:09;20.00;42.50
1367;DHT22;16877;48.810;9.282;2023-04-03T11:34:50;20.10;40.10
1367;DHT22;16877;48.810;9.282;2023-04-03T11:37:25;20.00;38.90
1367;DHT22;16877;48.810;9.282;2023-04-03T11:39:57;19.90;38.40
1367;DHT22;16877;48.810;9.282;2023-04-03T11:42:34;19.80;38.00
1367;DHT22;16877;48.810;9.282;2023-04-03T11:45:31;19.80;38.30
1367;DHT22;16877;48.810;9.282;2023-04-03T11:48:01;19.60;37.30
1367;DHT22;16877;48.810;9.282;2023-04-03T11:50:47;19.60;37.30
1367;DHT22;16877;48.810;9.282;2023-04-03T11:53:31;19.70;41.30
1367;DHT22;16877;48.810;9.282;2023-04-03T11:59:23;19.80;39.30
1367;DHT22;16877;48.810;9.282;2023-04-03T12:01:54;19.80;38.90
1367;DHT22;16877;48.810;9.282;2023-04-03T12:04:29;19.70;39.00
1367;DHT22;16877;48.810;9.282;2023-04-03T12:10:12;19.70;38.80
1367;DHT22;16877;48.810;9.282;2023-04-03T12:12:42;19.70;38.70
1367;DHT22;16877;48.810;9.282;2023-04-03T12:15:23;19.80;39.00
1367;DHT22;16877;48.810;9.282;2023-04-03T12:17:53;19.90;38.90
1367;DHT22;16877;48.810;9.282;2023-04-03T12:20:46;19.90;38.80
1367;DHT22;16877;48.810;9.282;2023-04-03T12:23:30;19.90;38.70
1367;DHT22;16877;48.810;9.282;2023-04-03T12:26:18;19.90;38.70
1367;DHT22;16877;48.810;9.282;2023-04-03T12:29:13;19.90;38.70
1367;DHT22;16877;48.810;9.282;2023-04-03T12:32:01;19.80;38.50
1367;DHT22;16877;48.810;9.282;2023-04-03T12:34:48;19.90;38.90
1367;DHT22;16877;48.810;9.282;2023-04-03T12:40:19;20.00;38.80
1367;DHT22;16877;48.810;9.282;2023-04-03T12:43:05;20.00;38.80
1367;DHT22;16877;48.810;9.282;2023-04-03T12:45:42;20.00;38.60
1367;DHT22;16877;48.810;9.282;2023-04-03T12:48:25;20.00;38.70
1367;DHT22;16877;48.810;9.282;2023-04-03T12:50:53;20.00;38.80
1367;DHT22;16877;48.810;9.282;2023-04-03T12:53:22;20.10;38.80
1367;DHT22;16877;48.810;9.282;2023-04-03T12:55:54;20.20;38.80
1367;DHT22;16877;48.810;9.282;2023-04-03T12:58:23;20.20;38.70
1367;DHT22;16877;48.810;9.282;2023-04-03T13:01:01;20.30;38.80
1367;DHT22;16877;48.810;9.282;2023-04-03T13:03:34;20.30;38.50
1367;DHT22;16877;48.810;9.282;2023-04-03T13:06:10;20.40;38.90
1367;DHT22;16877;48.810;9.282;2023-04-03T13:08:53;20.40;38.80
1367;DHT22;16877;48.810;9.282;2023-04-03T13:11:23;20.40;38.90
1367;DHT22;16877;48.810;9.282;2023-04-03T13:14:19;20.40;38.80
1367;DHT22;16877;48.810;9.282;2023-04-03T13:16:59;20.30;38.50
1367;DHT22;16877;48.810;9.282;2023-04-03T13:19:40;20.30;38.50
1367;DHT22;16877;48.810;9.282;2023-04-03T13:22:26;20.30;38.60
1367;DHT22;16877;48.810;9.282;2023-04-03T13:25:00;20.30;37.90
1367;DHT22;16877;48.810;9.282;2023-04-03T13:27:39;20.40;38.20
1367;DHT22;16877;48.810;9.282;2023-04-03T13:30:26;20.60;38.30
1367;DHT22;16877;48.810;9.282;2023-04-03T13:32:59;20.90;38.00
1367;DHT22;16877;48.810;9.282;2023-04-03T13:35:46;21.00;38.30
1367;DHT22;16877;48.810;9.282;2023-04-03T13:38:26;21.30;48.60
1367;DHT22;16877;48.810;9.282;2023-04-03T13:40:59;21.80;47.40
1367;DHT22;16877;48.810;9.282;2023-04-03T13:43:30;22.00;45.10
1367;DHT22;16877;48.810;9.282;2023-04-03T13:46:01;22.10;41.90
1367;DHT22;16877;48.810;9.282;2023-04-03T13:48:38;22.10;40.10
1367;DHT22;16877;48.810;9.282;2023-04-03T13:51:19;22.00;39.00
1367;DHT22;16877;48.810;9.282;2023-04-03T13:53:57;21.90;38.00
1367;DHT22;16877;48.810;9.282;2023-04-03T13:56:33;21.80;37.50
1367;DHT22;16877;48.810;9.282;2023-04-03T13:59:27;21.70;36.50
1367;DHT22;16877;48.810;9.282;2023-04-03T14:02:12;21.60;36.20
1367;DHT22;16877;48.810;9.282;2023-04-03T14:04:52;21.50;36.00
1367;DHT22;16877;48.810;9.282;2023-04-03T14:07:26;21.50;35.80
1367;DHT22;16877;48.810;9.282;2023-04-03T14:09:57;21.40;35.50
1367;DHT22;16877;48.810;9.282;2023-04-03T14:12:34;21.40;35.20
1367;DHT22;16877;48.810;9.282;2023-04-03T14:15:07;21.20;34.60
1367;DHT22;16877;48.810;9.282;2023-04-03T14:17:45;21.20;34.70
1367;DHT22;16877;48.810;9.282;2023-04-03T14:20:15;21.20;34.80
1367;DHT22;16877;48.810;9.282;2023-04-03T14:22:58;21.30;34.80
1367;DHT22;16877;48.810;9.282;2023-04-03T14:25:30;22.10;35.20
1367;DHT22;16877;48.810;9.282;2023-04-03T14:27:57;22.70;36.10
1367;DHT22;16877;48.810;9.282;2023-04-03T14:30:42;22.80;35.60
1367;DHT22;16877;48.810;9.282;2023-04-03T14:33:17;22.70;35.40
1367;DHT22;16877;48.810;9.282;2023-04-03T14:35:49;22.60;34.80
1367;DHT22;16877;48.810;9.282;2023-04-03T14:38:26;22.40;34.50
1367;DHT22;16877;48.810;9.282;2023-04-03T14:40:56;22.30;34.20
1367;DHT22;16877;48.810;9.282;2023-04-03T14:44:06;22.20;34.10
1367;DHT22;16877;48.810;9.282;2023-04-03T14:46:48;22.20;34.20
1367;DHT22;16877;48.810;9.282;2023-04-03T14:49:22;22.10;33.70
1367;DHT22;16877;48.810;9.282;2023-04-03T14:51:52;22.00;33.60
1367;DHT22;16877;48.810;9.282;2023-04-03T14:54:43;21.90;33.40
1367;DHT22;16877;48.810;9.282;2023-04-03T14:57:24;21.90;33.40
1367;DHT22;16877;48.810;9.282;2023-04-03T15:00:15;21.80;33.00
1367;DHT22;16877;48.810;9.282;2023-04-03T15:03:14;21.90;33.20
1367;DHT22;16877;48.810;9.282;2023-04-03T15:05:43;22.00;33.10
1367;DHT22;16877;48.810;9.282;2023-04-03T15:08:22;22.30;32.90
1367;DHT22;16877;48.810;9.282;2023-04-03T15:11:00;22.50;33.10
1367;DHT22;16877;48.810;9.282;2023-04-03T15:13:31;22.30;32.90
1367;DHT22;16877;48.810;9.282;2023-04-03T15:16:01;22.20;32.70
1367;DHT22;16877;48.810;9.282;2023-04-03T15:18:38;22.00;32.60
1367;DHT22;16877;48.810;9.282;2023-04-03T15:21:13;21.90;32.30
1367;DHT22;16877;48.810;9.282;2023-04-03T15:23:58;21.80;32.40
1367;DHT22;16877;48.810;9.282;2023-04-03T15:26:32;21.70;33.00
1367;DHT22;16877;48.810;9.282;2023-04-03T15:29:00;21.60;32.40
1367;DHT22;16877;48.810;9.282;2023-04-03T15:34:15;21.50;32.50
1367;DHT22;16877;48.810;9.282;2023-04-03T15:36:43;21.40;32.60
1367;DHT22;16877;48.810;9.282;2023-04-03T15:39:10;22.00;32.90
1367;DHT22;16877;48.810;9.282;2023-04-03T15:41:53;22.60;44.60
1367;DHT22;16877;48.810;9.282;2023-04-03T15:44:35;23.40;46.20
1367;DHT22;16877;48.810;9.282;2023-04-03T15:47:26;24.20;45.10
1367;DHT22;16877;48.810;9.282;2023-04-03T15:49:54;24.90;44.40
1367;DHT22;16877;48.810;9.282;2023-04-03T15:52:24;25.40;43.50
1367;DHT22;16877;48.810;9.282;2023-04-03T15:54:54;25.90;42.90
1367;DHT22;16877;48.810;9.282;2023-04-03T15:57:23;26.30;42.20
1367;DHT22;16877;48.810;9.282;2023-04-03T15:59:52;26.50;41.80
1367;DHT22;16877;48.810;9.282;2023-04-03T16:02:20;26.90;41.20
1367;DHT22;16877;48.810;9.282;2023-04-03T16:04:47;26.80;40.70
1367;DHT22;16877;48.810;9.282;2023-04-03T16:07:14;26.60;40.70
1367;DHT22;16877;48.810;9.282;2023-04-03T16:09:46;26.40;40.80
1367;DHT22;16877;48.810;9.282;2023-04-03T16:12:15;26.30;40.80
1367;DHT22;16877;48.810;9.282;2023-04-03T16:15:05;26.20;40.90
1367;DHT22;16877;48.810;9.282;2023-04-03T16:17:34;26.10;40.90
1367;DHT22;16877;48.810;9.282;2023-04-03T16:20:09;26.50;41.00
1367;DHT22;16877;48.810;9.282;2023-04-03T16:22:51;26.80;40.70
1367;DHT22;16877;48.810;9.282;2023-04-03T16:25:20;27.10;40.30
1367;DHT22;16877;48.810;9.282;2023-04-03T16:27:52;27.30;39.90
1367;DHT22;16877;48.810;9.282;2023-04-03T16:30:32;27.50;39.70
1367;DHT22;16877;48.810;9.282;2023-04-03T16:33:08;27.70;39.30
1367;DHT22;16877;48.810;9.282;2023-04-03T16:35:56;27.80;39.10
1367;DHT22;16877;48.810;9.282;2023-04-03T16:38:37;27.80;38.70
1367;DHT22;16877;48.810;9.282;2023-04-03T16:41:20;27.50;38.60
1367;DHT22;16877;48.810;9.282;2023-04-03T16:44:05;27.30;39.10
1367;DHT22;16877;48.810;9.282;2023-04-03T16:46:55;27.10;39.30